Tiempo atmosférico en la estación meteorológica de Montehermoso, Cáceres (351 m.)



Fecha
DESCASC
Temp. máxima en grados centígrados (hora)
DESCASC
Temp. mínima en grados centígrados (hora)
DESCASC
Temp. media en grados centígrados
DESCASC
Racha de viento máxima en m/sg (hora)
DESCASC
Velocidad máxima media en intervalos de 10 minutos(hora)
DESCASC
Precipitaciones diarias en mm
DESCASC
Precipitaciones de 00:00 a 06:00 en mm
DESCASC
Precipitaciones de 06:00 a 12:00 en mm
DESCASC
Precipitaciones de 12:00 a 18:00 en mm
DESCASC
Precipitaciones de 18:00 a 24:00 en mm
DESCASC
13-06-2019 26.9 (19:00) 7.7 (07:30) 17.3 8.33 (17:50) 4.17 (17:40) 0 0 0 0 0
12-06-2019 27.3 (19:00) 11 (04:00) 19.1 8.33 (06:00) 4.17 (23:20) 0 0 0 0 0
11-06-2019 25.9 (17:40) 14.6 (06:20) 20.3 10.83 (14:20) 5.83 (00:20) 0 0 0 0 0
10-06-2019 27.2 (17:10) 11 (06:40) 19.1 13.33 (13:50) 6.67 (23:10) 0 0 0 0 0
09-06-2019 26.2 (16:10) 9.4 (00:00) 17.8 13.06 (14:50) 6.11 (21:40) 0 0 0 0 0
08-06-2019 28.3 (18:00) 11.9 (00:00) 20.1 11.39 (17:10) 3.89 (17:20) 0 0 0 0 0
07-06-2019 22.5 (18:20) 7.7 (00:00) 15.1 11.39 (14:50) 4.44 (16:00) 0 0 0 0 0
06-06-2019 22.7 (17:10) 5.9 (00:00) 14.3 11.39 (16:50) 6.67 (16:50) 0.2 0 0 0 0.2
05-06-2019 22.2 (18:50) 10.5 (00:00) 16.4 11.94 (09:10) 7.22 (03:00) 0 0 0 0 0
04-06-2019 25.4 (17:00) 13.2 (00:00) 19.3 11.94 (17:50) 6.94 (18:30) 0 0 0 0 0
03-06-2019 33.3 (17:40) 15.6 (00:00) 24.4 9.72 (15:40) 5 (17:20) 0 0 0 0 0
02-06-2019 35.8 (17:50) 16.6 (00:00) 26.2 8.89 (18:10) 5.28 (18:10) 0 0 0 0 0
01-06-2019 35.5 (18:20) 15.3 (00:00) 25.4 7.5 (23:50) 4.72 (23:50) 0 0 0 0 0
31-05-2019 35.1 (18:20) 14.6 (00:00) 24.8 6.94 (10:50) 4.17 (10:50) 0 0 0 0 0
30-05-2019 32.6 (19:00) 15.5 (00:00) 24 7.22 (00:20) 3.89 (14:30) 0 0 0 0 0
29-05-2019 30.7 (18:20) 15.2 (00:00) 23 9.72 (16:20) 5 (00:40) 0 0 0 0 0
28-05-2019 30.2 (17:40) 16.3 (00:00) 23.3 12.22 (11:50) 6.39 (12:10) 0 0 0 0 0
27-05-2019 31.2 (16:50) 13.7 (00:00) 22.5 9.72 (15:40) 5.28 (15:40) 0 0 0 0 0
26-05-2019 31.8 (17:30) 16.2 (00:00) 24 11.11 (11:10) 5.28 (10:40) 0 0 0 0 0
25-05-2019 27.8 (18:10) 13.8 (00:00) 20.8 12.22 (03:50) 6.39 (04:10) 0 0 0 0 0
24-05-2019 27.8 (17:40) 14.4 (00:00) 21.1 12.78 (16:00) 7.22 (10:30) 0 0 0 0 0
23-05-2019 29.3 (17:20) 14 (00:00) 21.6 10.28 (22:30) 6.67 (22:30) 0 0 0 0 0
22-05-2019 29.6 (18:00) 10.5 (00:00) 20.1 7.22 (15:30) 3.89 (15:30) 0 0 0 0 0
21-05-2019 26.9 (18:10) 8.7 (07:00) 17.8 7.5 (14:20) 4.17 (16:10) 0 0 0 0 0
20-05-2019 25.1 (16:50) 7.8 (07:10) 16.5 12.5 (17:30) 4.72 (00:50) 0 0 0 0 0
19-05-2019 22.5 (16:50) 6 (00:00) 14.3 8.89 (15:30) 4.72 (16:50) 0 0 0 0 0
18-05-2019 20.3 (16:30) 8.2 (00:00) 14.2 10.28 (18:00) 5.83 (18:20) 0 0 0 0 0
17-05-2019 20.4 (17:40) 9.7 (00:00) 15 11.67 (12:30) 7.5 (12:00) 0 0 0 0 0

Gráficas

Temp. máximas Temp. mínimas Temp. medias Precipitaciones Rachas de viento máximas Velocidades máximas media en intervalos de 10 minutos

Datos horarios

Fecha y hora oficial Temperatura (ºC) Velocidad del viento (km/h) Dirección del viento Racha (km/h) Dirección de racha Precipitación (mm) Presión (hPa) Tendencia (hPa) Humedad (%)
2019-06-15 23:00:00 17.9 4 Noroeste 5 Oeste 0 -- -- 45
2019-06-15 22:00:00 22 3 Oeste 10 Sur 0 -- -- 38
2019-06-15 21:00:00 25.1 7 Sur 15 Sur 0 -- -- 32
2019-06-15 20:00:00 26 11 Sudeste 22 Sudeste 0 -- -- 30
2019-06-15 19:00:00 26.3 13 Sudeste 22 Sur 0 -- -- 29
2019-06-15 18:00:00 25.6 13 Sur 25 Sur 0 -- -- 29
2019-06-15 17:00:00 25.5 10 Sur 24 Sudeste 0 -- -- 30
2019-06-15 16:00:00 24.2 15 Sur 26 Sudeste 0 -- -- 33
2019-06-15 15:00:00 24.3 9 Sur 23 Sur 0 -- -- 33
2019-06-15 14:00:00 22.8 10 Sur 32 Sudoeste 0 -- -- 35
2019-06-15 13:00:00 22.3 6 Este 13 Oeste 0 -- -- 34
2019-06-15 12:00:00 19.9 6 Norte 15 Norte 0 -- -- 39
2019-06-15 11:00:00 18.6 7 Norte 16 Norte 0 -- -- 43
2019-06-15 10:00:00 16.5 6 Norte 17 Norte 0 -- -- 52
2019-06-15 09:00:00 13.8 5 Norte 11 Norte 0 -- -- 63
2019-06-15 08:00:00 9.8 0 Calma 4 Oeste 0 -- -- 78
2019-06-15 07:00:00 8.6 3 Sudeste 7 Norte 0 -- -- 80
2019-06-15 06:00:00 8.8 3 Noroeste 5 Noroeste 0 -- -- 78
2019-06-15 05:00:00 11 4 Noroeste 12 Noroeste 0 -- -- 70
2019-06-15 04:00:00 11.3 7 Noroeste 12 Noroeste 0 -- -- 69
2019-06-15 03:00:00 11.8 9 Noroeste 12 Oeste 0 -- -- 67
2019-06-15 02:00:00 12.9 6 Noroeste 11 Noroeste 0 -- -- 65
2019-06-15 01:00:00 13.6 6 Noroeste 17 Oeste 0 -- -- 62
2019-06-15 00:00:00 14.5 11 Oeste 18 Oeste 0 -- -- 59
2019-06-14 23:00:00 15.9 10 Oeste 26 Oeste 0 -- -- 55
2019-06-14 22:00:00 17.2 14 Oeste 35 Oeste 0 -- -- 50
2019-06-14 21:00:00 18.9 21 Oeste 38 Oeste 0 -- -- 44
2019-06-14 20:00:00 20.3 18 Oeste 31 Oeste 0 -- -- 37
2019-06-14 19:00:00 22.3 16 Oeste 35 Oeste 0 -- -- 33
2019-06-14 18:00:00 21.7 19 Oeste 39 Sudoeste 0 -- -- 34
2019-06-14 17:00:00 22.5 13 Oeste 31 Sur 0 -- -- 32
2019-06-14 16:00:00 21.4 13 Sudoeste 32 Sur 0 -- -- 36
2019-06-14 15:00:00 20.1 12 Sudoeste 27 Sur 0 -- -- 41
2019-06-14 14:00:00 20.5 12 Sudoeste 34 Sudeste 0 -- -- 43
2019-06-14 13:00:00 18.4 12 Sur 24 Sudeste 0 -- -- 49
2019-06-14 12:00:00 16.2 7 Sudoeste 21 Sur 0 -- -- 57
2019-06-14 11:00:00 15 9 Sudoeste 17 Sur 0 -- -- 62
2019-06-14 10:00:00 13 8 Sur 16 Sur 0 -- -- 68
2019-06-14 09:00:00 11.4 9 Sudoeste 16 Sudoeste 0 -- -- 73
2019-06-14 08:00:00 9.9 5 Oeste 10 Oeste 0 -- -- 79
2019-06-14 07:00:00 7.6 4 Oeste 6 Sudoeste 0 -- -- 80
2019-06-14 06:00:00 8.8 2 Oeste 7 Oeste 0 -- -- 76
2019-06-14 05:00:00 9.8 0 Calma 6 Oeste 0 -- -- 71
2019-06-14 04:00:00 11.9 3 Sur 14 Oeste 0 -- -- 64
2019-06-14 03:00:00 13.1 10 Oeste 18 Oeste 0 -- -- 59
2019-06-14 02:00:00 14.6 10 Oeste 17 Oeste 0 -- -- 55
2019-06-14 01:00:00 16.2 8 Oeste 17 Oeste 0 -- -- 49
2019-06-14 00:00:00 18.2 4 Sudoeste 18 Noroeste 0 -- -- 43
2019-06-13 23:00:00 19.9 10 Noroeste 16 Noroeste 0 -- -- 37
2019-06-13 22:00:00 22.2 7 Noroeste 17 Noroeste 0 -- -- 27
2019-06-13 21:00:00 26.3 6 Oeste 17 Sudoeste 0 -- -- 22
2019-06-13 20:00:00 26.4 10 Sudoeste 23 Sur 0 -- -- 24
2019-06-13 19:00:00 26.9 4 Noroeste 23 Oeste 0 -- -- 24
2019-06-13 18:00:00 26.3 9 Sudoeste 30 Sur 0 -- -- 22
2019-06-13 17:00:00 25.6 12 Sur 30 Sur 0 -- -- 25
2019-06-13 16:00:00 24.9 8 Sur 25 Sur 0 -- -- 25
2019-06-13 15:00:00 23.5 11 Sur 29 Sur 0 -- -- 27
2019-06-13 14:00:00 22.3 8 Sur 22 Sudeste 0 -- -- 31
2019-06-13 13:00:00 20.6 6 Sur 25 Sur 0 -- -- 39
2019-06-13 12:00:00 19 13 Sudeste 21 Sudeste 0 -- -- 41
2019-06-13 11:00:00 16.7 8 Sudeste 14 Sudeste 0 -- -- 56
2019-06-13 10:00:00 14.7 6 Sudeste 12 Sudeste 0 -- -- 63
2019-06-13 09:00:00 12.8 7 Sudeste 10 Sudeste 0 -- -- 66
2019-06-13 08:00:00 9.4 3 Norte 8 Este 0 -- -- 74
2019-06-13 07:00:00 8 2 Este 5 Nordeste 0 -- -- 78
2019-06-13 06:00:00 9 2 Norte 10 Nordeste 0 -- -- 75
2019-06-13 05:00:00 9.8 3 Sudeste 6 Oeste 0 -- -- 67
2019-06-13 04:00:00 10.7 4 Oeste 6 Oeste 0 -- -- 64
2019-06-13 03:00:00 11.5 2 Noroeste 5 Oeste 0 -- -- 60
2019-06-13 02:00:00 13.7 4 Noroeste 7 Noroeste 0 -- -- 53
2019-06-13 01:00:00 16.6 4 Sudeste 19 Norte 0 -- -- 46
2019-06-13 00:00:00 19 13 Noroeste 26 Noroeste 0 -- -- 39
2019-06-12 23:00:00 18.8 10 Oeste 17 Oeste 0 -- -- 30
2019-06-12 22:00:00 22.1 5 Noroeste 14 Oeste 0 -- -- 22
2019-06-12 21:00:00 25.6 9 Oeste 19 Oeste 0 -- -- 18
2019-06-12 20:00:00 26.6 12 Oeste 23 Sudoeste 0 -- -- 19
2019-06-12 19:00:00 27.3 4 Sur 22 Oeste 0 -- -- 19
2019-06-12 18:00:00 26.7 12 Oeste 27 Oeste 0 -- -- 20
2019-06-12 17:00:00 26 10 Oeste 23 Oeste 0 -- -- 20
2019-06-12 16:00:00 25.6 12 Sur 23 Sudoeste 0 -- -- 22
2019-06-12 15:00:00 24.5 11 Sudoeste 22 Oeste 0 -- -- 23
2019-06-12 14:00:00 24.1 9 Este 21 Sudoeste 0 -- -- 20
2019-06-12 13:00:00 22.5 8 Sudeste 21 Sudeste 0 -- -- 27
2019-06-12 12:00:00 21.3 10 Sudeste 22 Este 0 -- -- 32
2019-06-12 11:00:00 19.5 7 Este 21 Este 0 -- -- 34
2019-06-12 10:00:00 18 11 Este 22 Nordeste 0 -- -- 38
2019-06-12 09:00:00 15 11 Nordeste 23 Nordeste 0 -- -- 44
2019-06-12 08:00:00 13 9 Nordeste 27 Norte 0 -- -- 48
2019-06-12 07:00:00 12.4 11 Norte 26 Norte 0 -- -- 49
2019-06-12 06:00:00 13.1 13 Norte 30 Nordeste 0 -- -- 46
2019-06-12 05:00:00 13.7 10 Nordeste 22 Nordeste 0 -- -- 45
2019-06-12 04:00:00 11 2 Oeste 5 Sur 0 -- -- 52
2019-06-12 03:00:00 13.8 2 Sur 22 Norte 0 -- -- 46
2019-06-12 02:00:00 16.6 13 Norte 23 Norte 0 -- -- 38
2019-06-12 01:00:00 16.2 10 Noroeste 18 Noroeste 0 -- -- 32
2019-06-12 00:00:00 15.7 4 Norte 9 Nordeste 0 -- -- 33
2019-06-11 23:00:00 16.9 5 Norte 8 Norte 0 -- -- 31
2019-06-11 22:00:00 20.3 4 Norte 16 Nordeste 0 -- -- 25
2019-06-11 21:00:00 23.4 10 Nordeste 26 Nordeste 0 -- -- 21
2019-06-11 20:00:00 24.8 9 Nordeste 27 Nordeste 0 -- -- 20
2019-06-11 19:00:00 25.4 12 Nordeste 26 Norte 0 -- -- 20
2019-06-11 18:00:00 25.2 14 Nordeste 35 Este 0 -- -- 21
2019-06-11 17:00:00 24.7 17 Norte 34 Norte 0 -- -- 21
2019-06-11 16:00:00 24.3 13 Nordeste 37 Nordeste 0 -- -- 24
2019-06-11 15:00:00 24.1 13 Nordeste 39 Nordeste 0 -- -- 29
2019-06-11 14:00:00 21.9 15 Nordeste 37 Norte 0 -- -- 34
2019-06-11 13:00:00 20.4 13 Nordeste 34 Nordeste 0 -- -- 40
2019-06-11 12:00:00 19.9 13 Nordeste 33 Nordeste 0 -- -- 43
2019-06-11 11:00:00 17.8 12 Norte 33 Norte 0 -- -- 49
2019-06-11 10:00:00 17.3 19 Norte 38 Norte 0 -- -- 52
2019-06-11 09:00:00 16.1 13 Norte 35 Norte 0 -- -- 57
2019-06-11 08:00:00 15.3 16 Norte 30 Norte 0 -- -- 59
2019-06-11 07:00:00 14.6 11 Noroeste 21 Noroeste 0 -- -- 59
2019-06-11 06:00:00 14.9 15 Norte 25 Norte 0 -- -- 58
2019-06-11 05:00:00 15.3 14 Norte 28 Norte 0 -- -- 58
2019-06-11 04:00:00 15.8 12 Norte 27 Norte 0 -- -- 56
2019-06-11 03:00:00 16.1 10 Norte 19 Norte 0 -- -- 56
2019-06-11 02:00:00 16.5 3 Norte 24 Noroeste 0 -- -- 53
2019-06-11 01:00:00 18 17 Noroeste 35 Norte 0 -- -- 48
2019-06-11 00:00:00 19.2 22 Noroeste 39 Noroeste 0 -- -- 45
2019-06-10 23:00:00 20.6 22 Noroeste 37 Noroeste 0 -- -- 42
2019-06-10 22:00:00 22.4 18 Noroeste 30 Noroeste 0 -- -- 36
2019-06-10 21:00:00 25.1 14 Noroeste 24 Noroeste 0 -- -- 30
2019-06-10 20:00:00 26.3 13 Noroeste 29 Noroeste 0 -- -- 25
2019-06-10 19:00:00 26.8 15 Noroeste 30 Noroeste 0 -- -- 22
2019-06-10 18:00:00 26.9 16 Noroeste 33 Noroeste 0 -- -- 21
2019-06-10 17:00:00 27 15 Noroeste 30 Noroeste 0 -- -- 20
2019-06-10 16:00:00 26.3 17 Noroeste 32 Norte 0 -- -- 19
2019-06-10 15:00:00 24.8 11 Noroeste 26 Noroeste 0 -- -- 27
2019-06-10 14:00:00 23.6 17 Noroeste 48 Oeste 0 -- -- 29
2019-06-10 13:00:00 23 9 Norte 23 Norte 0 -- -- 34
2019-06-10 12:00:00 21.8 10 Noroeste 23 Noroeste 0 -- -- 40
2019-06-10 11:00:00 20.6 12 Norte 26 Norte 0 -- -- 43
2019-06-10 10:00:00 19.2 10 Norte 23 Norte 0 -- -- 50
2019-06-10 09:00:00 15.5 8 Sudeste 10 Sudeste 0 -- -- 62
2019-06-10 08:00:00 13 3 Nordeste 10 Noroeste 0 -- -- 67
2019-06-10 07:00:00 11.2 3 Oeste 8 Norte 0 -- -- 73
2019-06-10 06:00:00 11.6 4 Norte 10 Oeste 0 -- -- 70
2019-06-10 05:00:00 12.3 4 Noroeste 8 Noroeste 0 -- -- 67
2019-06-10 04:00:00 13.9 3 Norte 9 Oeste 0 -- -- 62
2019-06-10 03:00:00 16 6 Norte 22 Norte 0 -- -- 55
2019-06-10 02:00:00 16.5 12 Norte 23 Noroeste 0 -- -- 54
2019-06-10 01:00:00 17.5 14 Norte 25 Norte 0 -- -- 51
2019-06-10 00:00:00 18.5 16 Norte 31 Norte 0 -- -- 48
2019-06-09 23:00:00 19.8 17 Noroeste 27 Norte 0 -- -- 44
2019-06-09 22:00:00 21 19 Noroeste 33 Norte 0 -- -- 41
2019-06-09 21:00:00 22.9 16 Noroeste 32 Noroeste 0 -- -- 36
2019-06-09 20:00:00 25.2 18 Noroeste 31 Noroeste 0 -- -- 30
2019-06-09 19:00:00 24.9 12 Noroeste 28 Noroeste 0 -- -- 30
2019-06-09 18:00:00 25.9 12 Noroeste 30 Noroeste 0 -- -- 27
2019-06-09 17:00:00 25.8 12 Noroeste 30 Oeste 0 -- -- 27
2019-06-09 16:00:00 24.9 10 Noroeste 30 Oeste 0 -- -- 29
2019-06-09 15:00:00 25.5 15 Noroeste 47 Sudoeste 0 -- -- 30
2019-06-09 14:00:00 24.1 5 Oeste 20 Noroeste 0 -- -- 35
2019-06-09 13:00:00 22.9 6 Sudoeste 23 Sur 0 -- -- 42
2019-06-09 12:00:00 21.1 10 Sur 16 Sur 0 -- -- 48
2019-06-09 11:00:00 18.5 6 Sur 12 Sudeste 0 -- -- 55
2019-06-09 10:00:00 16.6 7 Este 14 Nordeste 0 -- -- 59
2019-06-09 09:00:00 12.4 3 Este 6 Este 0 -- -- 69
2019-06-09 08:00:00 10 3 Este 5 Este 0 -- -- 77
2019-06-09 07:00:00 10 3 Noroeste 6 Sur 0 -- -- 76
2019-06-09 06:00:00 11 5 Oeste 10 Oeste 0 -- -- 75
2019-06-09 05:00:00 10.7 4 Noroeste 7 Oeste 0 -- -- 76
2019-06-09 04:00:00 12.1 3 Norte 6 Norte 0 -- -- 70
2019-06-09 03:00:00 14.2 0 Calma 8 Noroeste 0 -- -- 64
2019-06-09 02:00:00 15.7 5 Norte 15 Oeste 0 -- -- 59
2019-06-09 01:00:00 16.3 11 Noroeste 15 Oeste 0 -- -- 55
2019-06-09 00:00:00 19.2 9 Noroeste 21 Oeste 0 -- -- 42
2019-06-08 23:00:00 21.3 10 Oeste 14 Oeste 0 -- -- 29
2019-06-08 22:00:00 23.1 6 Noroeste 14 Oeste 0 -- -- 25
2019-06-08 21:00:00 25.3 11 Noroeste 19 Noroeste 0 -- -- 22
2019-06-08 20:00:00 26.6 7 Sudoeste 25 Oeste 0 -- -- 19
2019-06-08 19:00:00 28.1 11 Oeste 22 Oeste 0 -- -- 20
2019-06-08 18:00:00 28.3 11 Sudoeste 41 Sudeste 0 -- -- 20
2019-06-08 17:00:00 27.7 9 Sudoeste 30 Sur 0 -- -- 21
2019-06-08 16:00:00 26.5 7 Sudoeste 21 Sur 0 -- -- 24
2019-06-08 15:00:00 26 7 Sur 18 Sur 0 -- -- 26
2019-06-08 14:00:00 25.8 8 Sudeste 22 Sudeste 0 -- -- 25
2019-06-08 13:00:00 24.1 8 Sudeste 22 Sudeste 0 -- -- 30
2019-06-08 12:00:00 22 6 Nordeste 20 Este 0 -- -- 33
2019-06-08 11:00:00 20.1 8 Nordeste 20 Nordeste 0 -- -- 36
2019-06-08 10:00:00 18.3 12 Nordeste 23 Nordeste 0 -- -- 39
2019-06-08 09:00:00 15.8 10 Nordeste 23 Norte 0 -- -- 44
2019-06-08 08:00:00 12.3 4 Nordeste 14 Norte 0 -- -- 57
2019-06-08 07:00:00 12.5 5 Nordeste 19 Nordeste 0 -- -- 56
2019-06-08 06:00:00 13.2 9 Norte 22 Norte 0 -- -- 54
2019-06-08 05:00:00 13.3 7 Norte 19 Norte 0 -- -- 53
2019-06-08 04:00:00 11.9 4 Norte 10 Norte 0 -- -- 56
2019-06-08 03:00:00 13.2 5 Norte 14 Norte 0 -- -- 53
2019-06-08 02:00:00 13.5 5 Norte 12 Norte 0 -- -- 52
2019-06-08 01:00:00 15.8 7 Norte 22 Norte 0 -- -- 45
2019-06-08 00:00:00 15.7 10 Noroeste 17 Norte 0 -- -- 45
2019-06-07 23:00:00 16.9 11 Noroeste 17 Noroeste 0 -- -- 41
2019-06-07 22:00:00 18.2 10 Noroeste 21 Norte 0 -- -- 38
2019-06-07 21:00:00 21 11 Norte 21 Norte 0 -- -- 33
2019-06-07 20:00:00 22.2 10 Norte 23 Noroeste 0 -- -- 31
2019-06-07 19:00:00 22.3 14 Noroeste 26 Noroeste 0 -- -- 30
2019-06-07 18:00:00 22.3 11 Noroeste 32 Noroeste 0 -- -- 30
2019-06-07 17:00:00 21.5 15 Noroeste 29 Noroeste 0 -- -- 31
2019-06-07 16:00:00 21.3 16 Norte 26 Norte 0 -- -- 32
2019-06-07 15:00:00 20.5 10 Noroeste 41 Noroeste 0 -- -- 35
2019-06-07 14:00:00 19 14 Noroeste 25 Noroeste 0 -- -- 39
2019-06-07 13:00:00 17.6 11 Norte 23 Noroeste 0 -- -- 42
2019-06-07 12:00:00 15.9 8 Noroeste 26 Oeste 0 -- -- 46
2019-06-07 11:00:00 15.4 11 Norte 22 Noroeste 0 -- -- 50
2019-06-07 10:00:00 13.2 10 Noroeste 17 Noroeste 0 -- -- 61
2019-06-07 09:00:00 11.7 8 Noroeste 15 Oeste 0 -- -- 73
2019-06-07 08:00:00 8 6 Oeste 7 Oeste 0 -- -- 92
2019-06-07 07:00:00 8.3 5 Oeste 8 Oeste 0 -- -- 91
2019-06-07 06:00:00 9.6 4 Noroeste 9 Oeste 0 -- -- 90
2019-06-07 05:00:00 8.5 6 Oeste 13 Oeste 0 -- -- 92
2019-06-07 04:00:00 9.2 6 Oeste 12 Oeste 0 -- -- 92
2019-06-07 03:00:00 10.1 6 Oeste 18 Oeste 0 -- -- 89
2019-06-07 02:00:00 11.4 9 Oeste 19 Oeste 0 -- -- 85
2019-06-07 01:00:00 12.6 11 Oeste 27 Oeste 0 -- -- 83
2019-06-07 00:00:00 12.9 12 Oeste 39 Sudoeste 0.2 -- -- 87
2019-06-06 23:00:00 16 13 Sudoeste 35 Sudoeste 0 -- -- 78
2019-06-06 22:00:00 17.6 19 Sudoeste 40 Sudoeste 0 -- -- 64
2019-06-06 21:00:00 18.3 17 Oeste 40 Sudoeste 0 -- -- 59
2019-06-06 20:00:00 20.5 16 Sudoeste 35 Sur 0 -- -- 45
2019-06-06 19:00:00 21.3 15 Sudoeste 33 Sudoeste 0 -- -- 42
2019-06-06 18:00:00 21.5 17 Sudoeste 39 Sudoeste 0 -- -- 39
2019-06-06 17:00:00 22.4 19 Sur 41 Sudeste 0 -- -- 37
2019-06-06 16:00:00 21.5 16 Sur 33 Sur 0 -- -- 39
2019-06-06 15:00:00 20.8 14 Sudoeste 34 Sur 0 -- -- 40
2019-06-06 14:00:00 19.9 15 Sur 29 Sudoeste 0 -- -- 38
2019-06-06 13:00:00 18.1 12 Sur 30 Sudeste 0 -- -- 43
2019-06-06 12:00:00 16.4 13 Sur 26 Sur 0 -- -- 48
2019-06-06 11:00:00 15.6 9 Sudeste 16 Sudeste 0 -- -- 52
2019-06-06 10:00:00 13.7 9 Sudeste 14 Sudeste 0 -- -- 61
2019-06-06 09:00:00 11.1 3 Sudeste 6 Sudeste 0 -- -- 69
2019-06-06 08:00:00 7.2 0 Calma 4 Oeste 0 -- -- 83
2019-06-06 07:00:00 6.2 2 Norte 9 Este 0 -- -- 81
2019-06-06 06:00:00 7 0 Calma 6 Oeste 0 -- -- 78
2019-06-06 05:00:00 7.4 2 Noroeste 5 Oeste 0 -- -- 75
2019-06-06 04:00:00 8.4 0 Calma 5 Noroeste 0 -- -- 71
2019-06-06 03:00:00 9.7 2 Noroeste 8 Nordeste 0 -- -- 65
2019-06-06 02:00:00 11.7 3 Noroeste 14 Noroeste 0 -- -- 57
2019-06-06 01:00:00 14.1 9 Noroeste 18 Noroeste 0 -- -- 51
2019-06-06 00:00:00 15 9 Noroeste 16 Noroeste 0 -- -- 48
2019-06-05 23:00:00 15.7 9 Noroeste 21 Noroeste 0 -- -- 44
2019-06-05 22:00:00 17.2 12 Noroeste 30 Noroeste 0 -- -- 39
2019-06-05 21:00:00 18.9 19 Noroeste 31 Oeste 0 -- -- 35
2019-06-05 20:00:00 20.6 13 Noroeste 28 Oeste 0 -- -- 33
2019-06-05 19:00:00 21.4 16 Oeste 31 Noroeste 0 -- -- 33
2019-06-05 18:00:00 22.1 14 Oeste 28 Oeste 0 -- -- 31
2019-06-05 17:00:00 21.7 13 Oeste 31 Oeste 0 -- -- 30
2019-06-05 16:00:00 21.1 14 Oeste 33 Oeste 0 -- -- 30
2019-06-05 15:00:00 20.6 12 Oeste 31 Norte 0 -- -- 34
2019-06-05 14:00:00 19.3 18 Noroeste 32 Oeste 0 -- -- 37
2019-06-05 13:00:00 19.1 19 Noroeste 31 Noroeste 0 -- -- 39
2019-06-05 12:00:00 17.4 19 Norte 29 Norte 0 -- -- 43
2019-06-05 11:00:00 15.9 12 Noroeste 27 Noroeste 0 -- -- 50
2019-06-05 10:00:00 14.5 15 Noroeste 43 Noroeste 0 -- -- 53
2019-06-05 09:00:00 13.4 20 Noroeste 35 Noroeste 0 -- -- 57
2019-06-05 08:00:00 11.9 12 Noroeste 21 Noroeste 0 -- -- 64
2019-06-05 07:00:00 11.1 6 Noroeste 18 Norte 0 -- -- 67
2019-06-05 06:00:00 11.1 9 Norte 23 Noroeste 0 -- -- 67
2019-06-05 05:00:00 12.1 14 Noroeste 33 Noroeste 0 -- -- 64
2019-06-05 04:00:00 12.7 21 Noroeste 37 Noroeste 0 -- -- 62
2019-06-05 03:00:00 13.6 26 Noroeste 40 Noroeste 0 -- -- 59
2019-06-05 02:00:00 14.3 23 Noroeste 38 Noroeste 0 -- -- 55
2019-06-05 01:00:00 15.3 23 Noroeste 35 Norte 0 -- -- 55
2019-06-05 00:00:00 16.5 19 Noroeste 31 Noroeste 0 -- -- 48
2019-06-04 23:00:00 17.8 10 Noroeste 31 Noroeste 0 -- -- 51
2019-06-04 22:00:00 19 20 Oeste 38 Oeste 0 -- -- 50
2019-06-04 21:00:00 20.8 15 Oeste 28 Noroeste 0 -- -- 45
2019-06-04 20:00:00 21.5 17 Oeste 32 Oeste 0 -- -- 49
2019-06-04 19:00:00 21.5 21 Noroeste 39 Oeste 0 -- -- 50
2019-06-04 18:00:00 23.3 25 Oeste 43 Oeste 0 -- -- 50
2019-06-04 17:00:00 25.4 16 Oeste 32 Sudoeste 0 -- -- 41
2019-06-04 16:00:00 24.4 12 Oeste 34 Oeste 0 -- -- 42
2019-06-04 15:00:00 24.9 12 Sudoeste 26 Sur 0 -- -- 41
2019-06-04 14:00:00 23.7 13 Sudoeste 28 Sur 0 -- -- 48
2019-06-04 13:00:00 22.9 10 Sudoeste 25 Sur 0 -- -- 50
2019-06-04 12:00:00 21.2 14 Sur 30 Sur 0 -- -- 58
2019-06-04 11:00:00 19.6 8 Sur 17 Sur 0 -- -- 65
2019-06-04 10:00:00 17.7 4 Sudoeste 14 Sur 0 -- -- 74
2019-06-04 09:00:00 15.9 5 Sur 12 Sur 0 -- -- 81
2019-06-04 08:00:00 14.4 2 Sudeste 5 Sudoeste 0 -- -- 87
2019-06-04 07:00:00 13.6 0 Calma 8 Oeste 0 -- -- 85
2019-06-04 06:00:00 14.5 3 Noroeste 8 Oeste 0 -- -- 83
2019-06-04 05:00:00 16.3 6 Oeste 12 Sudoeste 0 -- -- 76
2019-06-04 04:00:00 16.9 5 Oeste 11 Oeste 0 -- -- 72
2019-06-04 03:00:00 17.8 6 Oeste 10 Sudoeste 0 -- -- 66
2019-06-04 02:00:00 19 4 Oeste 13 Noroeste 0 -- -- 65
2019-06-04 01:00:00 20.2 5 Oeste 9 Oeste 0 -- -- 61
2019-06-04 00:00:00 22.3 5 Noroeste 17 Oeste 0 -- -- 55
2019-06-03 23:00:00 24.1 9 Noroeste 21 Oeste 0 -- -- 51
2019-06-03 22:00:00 26.1 12 Oeste 32 Noroeste 0 -- -- 42
2019-06-03 21:00:00 29.3 15 Oeste 34 Oeste 0 -- -- 37
2019-06-03 20:00:00 31.1 17 Oeste 31 Oeste 0 -- -- 31
2019-06-03 19:00:00 32.3 13 Oeste 32 Oeste 0 -- -- 25
2019-06-03 18:00:00 32.9 14 Sudoeste 35 Sur 0 -- -- 20
2019-06-03 17:00:00 32.9 16 Sur 30 Sur 0 -- -- 17
2019-06-03 16:00:00 32.3 12 Sudoeste 35 Sur 0 -- -- 17
2019-06-03 15:00:00 31.5 15 Sur 26 Sur 0 -- -- 19
2019-06-03 14:00:00 30 12 Sur 25 Sur 0 -- -- 24
2019-06-03 13:00:00 28.2 10 Sur 21 Sur 0 -- -- 29
2019-06-03 12:00:00 26.9 10 Sudeste 17 Sudeste 0 -- -- 32
2019-06-03 11:00:00 24.6 5 Sudeste 9 Sudeste 0 -- -- 40
2019-06-03 10:00:00 22 5 Sudeste 9 Sudeste 0 -- -- 45
2019-06-03 09:00:00 18.8 2 Sudeste 5 Sudeste 0 -- -- 55
2019-06-03 08:00:00 16.7 2 Este 6 Oeste 0 -- -- 62
2019-06-03 07:00:00 15.8 0 Calma 5 Oeste 0 -- -- 61
2019-06-03 06:00:00 16.1 0 Calma 4 Norte 0 -- -- 61
2019-06-03 05:00:00 18.1 0 Calma 4 Noroeste 0 -- -- 54
2019-06-03 04:00:00 18.7 2 Noroeste 8 Sudeste 0 -- -- 50
2019-06-03 03:00:00 21.3 6 Sudeste 18 Noroeste 0 -- -- 43
2019-06-03 02:00:00 23.8 13 Noroeste 20 Noroeste 0 -- -- 35
2019-06-03 01:00:00 23 5 Noroeste 9 Noroeste 0 -- -- 37
2019-06-03 00:00:00 23.6 3 Norte 10 Noroeste 0 -- -- 38
2019-06-02 23:00:00 26.8 6 Noroeste 15 Noroeste 0 -- -- 28
2019-06-02 22:00:00 28.9 10 Noroeste 26 Oeste 0 -- -- 26
2019-06-02 21:00:00 31 15 Noroeste 26 Oeste 0 -- -- 24
2019-06-02 20:00:00 32.8 14 Noroeste 30 Oeste 0 -- -- 20
2019-06-02 19:00:00 34.2 15 Oeste 32 Oeste 0 -- -- 19
2019-06-02 18:00:00 35.4 10 Oeste 30 Oeste 0 -- -- 18
2019-06-02 17:00:00 34.9 10 Sudoeste 27 Sur 0 -- -- 20
2019-06-02 16:00:00 34.6 9 Sudoeste 22 Sur 0 -- -- 21
2019-06-02 15:00:00 33.9 13 Sur 23 Sur 0 -- -- 22
2019-06-02 14:00:00 32.9 9 Sur 19 Sudeste 0 -- -- 23
2019-06-02 13:00:00 31.4 8 Sur 18 Sur 0 -- -- 25
2019-06-02 12:00:00 29.3 7 Sudeste 15 Sudeste 0 -- -- 30
2019-06-02 11:00:00 27.8 6 Sudeste 13 Este 0 -- -- 34
2019-06-02 10:00:00 25.5 6 Sudeste 10 Este 0 -- -- 37
2019-06-02 09:00:00 20.8 10 Sudeste 14 Sudeste 0 -- -- 50
2019-06-02 08:00:00 18.8 7 Oeste 12 Oeste 0 -- -- 49
2019-06-02 07:00:00 17.3 0 Calma 9 Sudeste 0 -- -- 52
2019-06-02 06:00:00 19.1 3 Noroeste 9 Noroeste 0 -- -- 43
2019-06-02 05:00:00 20.5 3 Oeste 9 Oeste 0 -- -- 42
2019-06-02 04:00:00 21.9 4 Noroeste 9 Norte 0 -- -- 39
2019-06-02 03:00:00 19.8 6 Noroeste 8 Noroeste 0 -- -- 47
2019-06-02 02:00:00 21.5 3 Noroeste 11 Norte 0 -- -- 42
2019-06-02 01:00:00 26 6 Norte 19 Norte 0 -- -- 31
2019-06-02 00:00:00 27.2 14 Norte 27 Norte 0 -- -- 31
2019-06-01 23:00:00 24.5 5 Noroeste 7 Noroeste 0 -- -- 39
2019-06-01 22:00:00 27.1 3 Noroeste 5 Sudoeste 0 -- -- 36
2019-06-01 21:00:00 34.1 3 Sur 9 Sur 0 -- -- 25
2019-06-01 20:00:00 35.1 2 Norte 9 Sudeste 0 -- -- 19
2019-06-01 19:00:00 34.9 8 Sudeste 19 Sudeste 0 -- -- 20
2019-06-01 18:00:00 35.2 9 Sudeste 17 Sudeste 0 -- -- 18
2019-06-01 17:00:00 34.8 11 Sur 20 Sudeste 0 -- -- 20
2019-06-01 16:00:00 34.6 9 Sudeste 16 Sudeste 0 -- -- 23
2019-06-01 15:00:00 33.2 8 Sur 19 Sudeste 0 -- -- 21
2019-06-01 14:00:00 31.6 9 Sudeste 18 Sudeste 0 -- -- 26
2019-06-01 13:00:00 30 7 Sur 16 Sudeste 0 -- -- 27
2019-06-01 12:00:00 29.2 9 Sudeste 20 Sudeste 0 -- -- 29
2019-06-01 11:00:00 26.3 10 Sur 21 Sudeste 0 -- -- 34
2019-06-01 10:00:00 24.4 8 Sudeste 16 Este 0 -- -- 36
2019-06-01 09:00:00 21.9 9 Este 15 Este 0 -- -- 43
2019-06-01 08:00:00 17.9 7 Nordeste 15 Nordeste 0 -- -- 55
2019-06-01 07:00:00 15.3 2 Noroeste 7 Oeste 0 -- -- 63
2019-06-01 06:00:00 16.8 2 Oeste 6 Noroeste 0 -- -- 59
2019-06-01 05:00:00 18 4 Noroeste 9 Oeste 0 -- -- 54
2019-06-01 04:00:00 18.5 9 Norte 17 Sudeste 0 -- -- 55
2019-06-01 03:00:00 19.5 4 Noroeste 6 Noroeste 0 -- -- 49
2019-06-01 02:00:00 20.1 4 Norte 6 Norte 0 -- -- 48
2019-06-01 01:00:00 21 5 Noroeste 8 Noroeste 0 -- -- 45
2019-06-01 00:00:00 22 3 Noroeste 6 Norte 0 -- -- 41
2019-05-31 23:00:00 24.7 0 Calma 8 Noroeste 0 -- -- 36
2019-05-31 22:00:00 27.8 6 Oeste 9 Sudoeste 0 -- -- 32
2019-05-31 21:00:00 32.8 5 Sudoeste 13 Sur 0 -- -- 24
2019-05-31 20:00:00 33.7 9 Sur 18 Sur 0 -- -- 22
2019-05-31 19:00:00 34.2 10 Sur 17 Oeste 0 -- -- 22
2019-05-31 18:00:00 35 3 Sudeste 20 Sur 0 -- -- 21
2019-05-31 17:00:00 34 9 Sudoeste 21 Sur 0 -- -- 22
2019-05-31 16:00:00 33.6 9 Sur 18 Sur 0 -- -- 21
2019-05-31 15:00:00 32.9 9 Sur 19 Sur 0 -- -- 22
2019-05-31 14:00:00 31.6 8 Sur 19 Sudeste 0 -- -- 24
2019-05-31 13:00:00 30 8 Sudeste 19 Sudeste 0 -- -- 26
2019-05-31 12:00:00 27.5 8 Sudeste 18 Sudeste 0 -- -- 30
2019-05-31 11:00:00 25.8 14 Sudeste 25 Sudeste 0 -- -- 32
2019-05-31 10:00:00 24.4 9 Sudeste 16 Este 0 -- -- 34
2019-05-31 09:00:00 22.1 7 Este 13 Sudeste 0 -- -- 37
2019-05-31 08:00:00 18.4 7 Sudeste 14 Este 0 -- -- 42
2019-05-31 07:00:00 17 8 Este 10 Nordeste 0 -- -- 45
2019-05-31 06:00:00 14.7 4 Nordeste 8 Sudeste 0 -- -- 58
2019-05-31 05:00:00 17.2 4 Norte 19 Sudeste 0 -- -- 49
2019-05-31 04:00:00 18.6 4 Este 13 Nordeste 0 -- -- 46
2019-05-31 03:00:00 23.3 7 Norte 18 Norte 0 -- -- 32
2019-05-31 02:00:00 23.4 9 Norte 22 Norte 0 -- -- 32
2019-05-31 01:00:00 20.1 5 Noroeste 8 Noroeste 0 -- -- 49
2019-05-31 00:00:00 21.1 6 Oeste 8 Oeste 0 -- -- 48
2019-05-30 23:00:00 21.8 4 Noroeste 5 Noroeste 0 -- -- 47
2019-05-30 22:00:00 25.3 3 Norte 5 Nordeste 0 -- -- 43
2019-05-30 21:00:00 31.7 3 Sudoeste 11 Sudeste 0 -- -- 29
2019-05-30 20:00:00 32.3 7 Sur 14 Sur 0 -- -- 25
2019-05-30 19:00:00 32.6 8 Sur 16 Sur 0 -- -- 25
2019-05-30 18:00:00 32.1 11 Sur 19 Sudeste 0 -- -- 25
2019-05-30 17:00:00 31.5 10 Sur 20 Sur 0 -- -- 26
2019-05-30 16:00:00 31.6 9 Sudeste 19 Sur 0 -- -- 26
2019-05-30 15:00:00 29 10 Sur 22 Sudeste 0 -- -- 30
2019-05-30 14:00:00 27.7 10 Sur 20 Sudeste 0 -- -- 32
2019-05-30 13:00:00 27 9 Sudeste 21 Sudeste 0 -- -- 30
2019-05-30 12:00:00 25 9 Sudeste 20 Sur 0 -- -- 33
2019-05-30 11:00:00 23.7 11 Sudeste 23 Sudeste 0 -- -- 37
2019-05-30 10:00:00 21.9 13 Sudeste 22 Este 0 -- -- 39
2019-05-30 09:00:00 19.5 6 Este 13 Este 0 -- -- 43
2019-05-30 08:00:00 17.3 6 Sudeste 14 Este 0 -- -- 49
2019-05-30 07:00:00 17.7 7 Este 22 Este 0 -- -- 45
2019-05-30 06:00:00 17.7 7 Este 16 Este 0 -- -- 42
2019-05-30 05:00:00 17.8 6 Nordeste 13 Norte 0 -- -- 40
2019-05-30 04:00:00 15.5 5 Nordeste 11 Este 0 -- -- 47
2019-05-30 03:00:00 18.6 2 Sudeste 13 Nordeste 0 -- -- 40
2019-05-30 02:00:00 20.8 6 Sudeste 21 Norte 0 -- -- 35
2019-05-30 01:00:00 22.5 12 Norte 26 Norte 0 -- -- 31
2019-05-30 00:00:00 23 13 Norte 28 Nordeste 0 -- -- 34
2019-05-29 23:00:00 24 15 Norte 26 Nordeste 0 -- -- 32
2019-05-29 22:00:00 25 14 Norte 31 Norte 0 -- -- 30
2019-05-29 21:00:00 27.4 15 Norte 31 Nordeste 0 -- -- 28
2019-05-29 20:00:00 29 15 Norte 32 Norte 0 -- -- 27
2019-05-29 19:00:00 29.9 16 Nordeste 31 Nordeste 0 -- -- 25
2019-05-29 18:00:00 30.3 16 Nordeste 30 Nordeste 0 -- -- 25
2019-05-29 17:00:00 30.3 13 Nordeste 35 Norte 0 -- -- 25
2019-05-29 16:00:00 29.5 12 Nordeste 26 Norte 0 -- -- 27
2019-05-29 15:00:00 28.7 12 Nordeste 27 Norte 0 -- -- 28
2019-05-29 14:00:00 26.2 12 Sudeste 21 Sudeste 0 -- -- 33
2019-05-29 13:00:00 24.1 13 Sudeste 24 Sudeste 0 -- -- 36
2019-05-29 12:00:00 22.3 9 Sur 29 Este 0 -- -- 38
2019-05-29 11:00:00 21.5 13 Este 34 Nordeste 0 -- -- 38
2019-05-29 10:00:00 19.5 13 Nordeste 27 Nordeste 0 -- -- 39
2019-05-29 09:00:00 17 14 Nordeste 31 Nordeste 0 -- -- 44
2019-05-29 08:00:00 15.2 12 Nordeste 30 Nordeste 0 -- -- 46
2019-05-29 07:00:00 15.8 12 Nordeste 33 Nordeste 0 -- -- 43
2019-05-29 06:00:00 16.1 8 Nordeste 22 Nordeste 0 -- -- 42
2019-05-29 05:00:00 17 10 Nordeste 27 Nordeste 0 -- -- 40
2019-05-29 04:00:00 17.7 10 Nordeste 27 Nordeste 0 -- -- 40
2019-05-29 03:00:00 17.7 8 Nordeste 24 Nordeste 0 -- -- 44
2019-05-29 02:00:00 19.5 8 Este 33 Norte 0 -- -- 38
2019-05-29 01:00:00 21.6 18 Norte 34 Norte 0 -- -- 32
2019-05-29 00:00:00 21.8 14 Norte 21 Norte 0 -- -- 32
2019-05-28 23:00:00 22.4 6 Norte 22 Nordeste 0 -- -- 32
2019-05-28 22:00:00 24.1 9 Nordeste 24 Nordeste 0 -- -- 29
2019-05-28 21:00:00 27.1 10 Nordeste 27 Norte 0 -- -- 26
2019-05-28 20:00:00 28.6 14 Nordeste 37 Nordeste 0 -- -- 24
2019-05-28 19:00:00 29.6 17 Nordeste 34 Nordeste 0 -- -- 23
2019-05-28 18:00:00 30 18 Nordeste 33 Nordeste 0 -- -- 22
2019-05-28 17:00:00 29.5 16 Nordeste 35 Nordeste 0 -- -- 21
2019-05-28 16:00:00 29 18 Nordeste 35 Nordeste 0 -- -- 22
2019-05-28 15:00:00 28.2 14 Nordeste 35 Nordeste 0 -- -- 23
2019-05-28 14:00:00 27 17 Nordeste 35 Nordeste 0 -- -- 24
2019-05-28 13:00:00 26.3 17 Nordeste 37 Nordeste 0 -- -- 26
2019-05-28 12:00:00 24.3 20 Nordeste 44 Norte 0 -- -- 29
2019-05-28 11:00:00 22.9 17 Nordeste 32 Nordeste 0 -- -- 37
2019-05-28 10:00:00 20.8 16 Nordeste 31 Norte 0 -- -- 47
2019-05-28 09:00:00 18.4 13 Nordeste 27 Nordeste 0 -- -- 53
2019-05-28 08:00:00 17.1 13 Norte 23 Norte 0 -- -- 58
2019-05-28 07:00:00 16.5 9 Nordeste 21 Nordeste 0 -- -- 60
2019-05-28 06:00:00 17.4 10 Norte 27 Norte 0 -- -- 58
2019-05-28 05:00:00 18.6 14 Nordeste 33 Nordeste 0 -- -- 54
2019-05-28 04:00:00 19.7 12 Nordeste 30 Nordeste 0 -- -- 51
2019-05-28 03:00:00 19.7 10 Norte 20 Norte 0 -- -- 52
2019-05-28 02:00:00 20.4 5 Norte 14 Norte 0 -- -- 47
2019-05-28 01:00:00 21.3 6 Nordeste 20 Noroeste 0 -- -- 45
2019-05-28 00:00:00 22.9 14 Noroeste 20 Noroeste 0 -- -- 40
2019-05-27 23:00:00 24.1 12 Noroeste 21 Noroeste 0 -- -- 38
2019-05-27 22:00:00 25.1 12 Norte 20 Norte 0 -- -- 38
2019-05-27 21:00:00 27.9 13 Norte 28 Norte 0 -- -- 33
2019-05-27 20:00:00 29 19 Norte 33 Noroeste 0 -- -- 28
2019-05-27 19:00:00 29.8 19 Noroeste 30 Noroeste 0 -- -- 29
2019-05-27 18:00:00 30.7 18 Noroeste 34 Noroeste 0 -- -- 27
2019-05-27 17:00:00 31 16 Noroeste 31 Noroeste 0 -- -- 27
2019-05-27 16:00:00 30.6 17 Noroeste 35 Noroeste 0 -- -- 28
2019-05-27 15:00:00 30.6 17 Norte 33 Norte 0 -- -- 31
2019-05-27 14:00:00 28.8 6 Norte 16 Norte 0 -- -- 36
2019-05-27 13:00:00 28.3 5 Noroeste 18 Nordeste 0 -- -- 36
2019-05-27 12:00:00 26.2 7 Noroeste 13 Nordeste 0 -- -- 40
2019-05-27 11:00:00 25 4 Este 14 Nordeste 0 -- -- 42
2019-05-27 10:00:00 22.8 7 Nordeste 13 Norte 0 -- -- 48
2019-05-27 09:00:00 20.2 3 Norte 8 Sudeste 0 -- -- 58
2019-05-27 08:00:00 15.1 0 Calma 6 Este 0 -- -- 69
2019-05-27 07:00:00 14.7 3 Oeste 8 Noroeste 0 -- -- 67
2019-05-27 06:00:00 15.2 4 Noroeste 8 Oeste 0 -- -- 65
2019-05-27 05:00:00 15.4 4 Noroeste 6 Oeste 0 -- -- 64
2019-05-27 04:00:00 16.6 0 Calma 12 Oeste 0 -- -- 58
2019-05-27 03:00:00 18.2 4 Sudeste 19 Noroeste 0 -- -- 53
2019-05-27 02:00:00 19 4 Noroeste 9 Noroeste 0 -- -- 51
2019-05-27 01:00:00 20.9 9 Noroeste 16 Noroeste 0 -- -- 43
2019-05-27 00:00:00 20.5 3 Noroeste 5 Noroeste 0 -- -- 44
2019-05-26 23:00:00 21.4 4 Noroeste 7 Norte 0 -- -- 45
2019-05-26 22:00:00 24.3 4 Norte 9 Este 0 -- -- 41
2019-05-26 21:00:00 29.4 4 Nordeste 22 Nordeste 0 -- -- 30
2019-05-26 20:00:00 30.6 13 Nordeste 24 Nordeste 0 -- -- 27
2019-05-26 19:00:00 31.5 11 Nordeste 30 Este 0 -- -- 27
2019-05-26 18:00:00 31.7 13 Este 30 Este 0 -- -- 27
2019-05-26 17:00:00 31.3 11 Este 27 Norte 0 -- -- 28
2019-05-26 16:00:00 30 9 Nordeste 28 Nordeste 0 -- -- 31
2019-05-26 15:00:00 28.8 9 Nordeste 31 Nordeste 0 -- -- 33
2019-05-26 14:00:00 27 11 Nordeste 27 Este 0 -- -- 35
2019-05-26 13:00:00 25.5 12 Nordeste 32 Nordeste 0 -- -- 36
2019-05-26 12:00:00 23.9 17 Nordeste 40 Norte 0 -- -- 38
2019-05-26 11:00:00 21.9 16 Nordeste 33 Nordeste 0 -- -- 42
2019-05-26 10:00:00 20.6 10 Nordeste 28 Nordeste 0 -- -- 44
2019-05-26 09:00:00 17.9 17 Norte 35 Norte 0 -- -- 47
2019-05-26 08:00:00 16.2 11 Norte 25 Norte 0 -- -- 47
2019-05-26 07:00:00 16.4 13 Norte 24 Norte 0 -- -- 40
2019-05-26 06:00:00 16.9 11 Norte 23 Norte 0 -- -- 38
2019-05-26 05:00:00 17.3 11 Norte 24 Norte 0 -- -- 40
2019-05-26 04:00:00 18 13 Norte 23 Norte 0 -- -- 44
2019-05-26 03:00:00 18.8 9 Norte 22 Norte 0 -- -- 41
2019-05-26 02:00:00 18.8 10 Norte 18 Norte 0 -- -- 40
2019-05-26 01:00:00 18.2 7 Norte 13 Nordeste 0 -- -- 43
2019-05-26 00:00:00 19.3 4 Norte 13 Norte 0 -- -- 41
2019-05-25 23:00:00 20.4 6 Norte 12 Nordeste 0 -- -- 39
2019-05-25 22:00:00 22.5 6 Nordeste 20 Nordeste 0 -- -- 33
2019-05-25 21:00:00 25.5 8 Nordeste 30 Nordeste 0 -- -- 29
2019-05-25 20:00:00 26.5 17 Nordeste 32 Nordeste 0 -- -- 27
2019-05-25 19:00:00 27.5 15 Nordeste 32 Nordeste 0 -- -- 27
2019-05-25 18:00:00 27.5 15 Nordeste 32 Nordeste 0 -- -- 27
2019-05-25 17:00:00 27.1 16 Norte 39 Nordeste 0 -- -- 28
2019-05-25 16:00:00 26.3 16 Nordeste 31 Nordeste 0 -- -- 29
2019-05-25 15:00:00 25.7 15 Nordeste 36 Nordeste 0 -- -- 33
2019-05-25 14:00:00 24 19 Nordeste 43 Norte 0 -- -- 35
2019-05-25 13:00:00 22.2 20 Norte 41 Nordeste 0 -- -- 38
2019-05-25 12:00:00 20.7 22 Nordeste 37 Norte 0 -- -- 41
2019-05-25 11:00:00 19.4 19 Nordeste 37 Nordeste 0 -- -- 47
2019-05-25 10:00:00 18 13 Nordeste 30 Nordeste 0 -- -- 49
2019-05-25 09:00:00 15.9 15 Nordeste 31 Norte 0 -- -- 56
2019-05-25 08:00:00 14.2 12 Nordeste 32 Nordeste 0 -- -- 61
2019-05-25 07:00:00 13.8 14 Nordeste 33 Nordeste 0 -- -- 62
2019-05-25 06:00:00 13.9 12 Norte 33 Norte 0 -- -- 62
2019-05-25 05:00:00 14.2 9 Este 42 Norte 0 -- -- 60
2019-05-25 04:00:00 15.7 23 Norte 44 Nordeste 0 -- -- 53
2019-05-25 03:00:00 17.1 14 Norte 38 Nordeste 0 -- -- 46
2019-05-25 02:00:00 18 15 Norte 33 Norte 0 -- -- 44
2019-05-25 01:00:00 19.2 15 Norte 30 Norte 0 -- -- 41
2019-05-25 00:00:00 19.9 8 Nordeste 21 Norte 0 -- -- 39
2019-05-24 23:00:00 20.7 5 Este 19 Nordeste 0 -- -- 37
2019-05-24 22:00:00 22.4 7 Norte 24 Nordeste 0 -- -- 34
2019-05-24 21:00:00 24.6 12 Nordeste 30 Este 0 -- -- 31
2019-05-24 20:00:00 26 17 Nordeste 33 Nordeste 0 -- -- 26
2019-05-24 19:00:00 27.1 19 Nordeste 40 Nordeste 0 -- -- 25
2019-05-24 18:00:00 27.8 18 Nordeste 40 Nordeste 0 -- -- 26
2019-05-24 17:00:00 27.3 19 Nordeste 39 Nordeste 0 -- -- 28
2019-05-24 16:00:00 26.6 19 Norte 46 Norte 0 -- -- 28
2019-05-24 15:00:00 25.9 19 Norte 41 Norte 0 -- -- 32
2019-05-24 14:00:00 24.5 20 Norte 40 Nordeste 0 -- -- 37
2019-05-24 13:00:00 23.1 18 Nordeste 41 Este 0 -- -- 41
2019-05-24 12:00:00 21.6 22 Nordeste 44 Nordeste 0 -- -- 45
2019-05-24 11:00:00 19.7 23 Norte 44 Norte 0 -- -- 52
2019-05-24 10:00:00 18.2 22 Norte 42 Norte 0 -- -- 59
2019-05-24 09:00:00 17.3 20 Norte 38 Norte 0 -- -- 60
2019-05-24 08:00:00 14.6 8 Noroeste 21 Noroeste 0 -- -- 59
2019-05-24 07:00:00 15.2 14 Noroeste 30 Norte 0 -- -- 55
2019-05-24 06:00:00 16.6 18 Norte 31 Norte 0 -- -- 50
2019-05-24 05:00:00 16.6 11 Norte 23 Norte 0 -- -- 55
2019-05-24 04:00:00 17.3 13 Norte 27 Norte 0 -- -- 54
2019-05-24 03:00:00 17.7 11 Norte 23 Noroeste 0 -- -- 55
2019-05-24 02:00:00 18.5 11 Noroeste 23 Norte 0 -- -- 53
2019-05-24 01:00:00 18.8 8 Norte 14 Norte 0 -- -- 53
2019-05-24 00:00:00 20.2 12 Norte 32 Noroeste 0 -- -- 50
2019-05-23 23:00:00 21.2 20 Norte 37 Norte 0 -- -- 50
2019-05-23 22:00:00 22.7 19 Noroeste 32 Noroeste 0 -- -- 47
2019-05-23 21:00:00 25 18 Norte 31 Noroeste 0 -- -- 37
2019-05-23 20:00:00 28.2 13 Norte 24 Noroeste 0 -- -- 29
2019-05-23 19:00:00 29 12 Noroeste 24 Noroeste 0 -- -- 29
2019-05-23 18:00:00 29.1 9 Oeste 26 Sudoeste 0 -- -- 31
2019-05-23 17:00:00 29.2 8 Noroeste 23 Oeste 0 -- -- 32
2019-05-23 16:00:00 28.3 10 Noroeste 26 Noroeste 0 -- -- 32
2019-05-23 15:00:00 28 9 Sudoeste 28 Sudeste 0 -- -- 36
2019-05-23 14:00:00 26.5 13 Sur 23 Sur 0 -- -- 39
2019-05-23 13:00:00 25.1 12 Sur 23 Sur 0 -- -- 44
2019-05-23 12:00:00 23.7 10 Sur 19 Sur 0 -- -- 49
2019-05-23 11:00:00 22.6 8 Sudoeste 17 Sur 0 -- -- 53
2019-05-23 10:00:00 19.3 6 Oeste 14 Oeste 0 -- -- 61
2019-05-23 09:00:00 16.5 7 Noroeste 12 Noroeste 0 -- -- 73
2019-05-23 08:00:00 14.9 6 Oeste 11 Oeste 0 -- -- 80
2019-05-23 07:00:00 14.6 3 Sur 13 Nordeste 0 -- -- 81
2019-05-23 06:00:00 14.2 3 Norte 8 Nordeste 0 -- -- 81
2019-05-23 05:00:00 14.8 3 Norte 9 Oeste 0 -- -- 78
2019-05-23 04:00:00 16.2 4 Oeste 10 Oeste 0 -- -- 72
2019-05-23 03:00:00 15.5 4 Norte 6 Norte 0 -- -- 73
2019-05-23 02:00:00 17.2 0 Calma 9 Este 0 -- -- 66
2019-05-23 01:00:00 18.7 6 Oeste 17 Noroeste 0 -- -- 59
2019-05-23 00:00:00 21 10 Noroeste 19 Noroeste 0 -- -- 48
2019-05-22 23:00:00 20.9 7 Oeste 15 Oeste 0 -- -- 47
2019-05-22 22:00:00 23.1 2 Noroeste 4 Noroeste 0 -- -- 47
2019-05-22 21:00:00 28 3 Oeste 10 Sur 0 -- -- 32
2019-05-22 20:00:00 28.5 8 Sur 14 Sudeste 0 -- -- 31
2019-05-22 19:00:00 28.5 5 Sur 18 Sur 0 -- -- 30
2019-05-22 18:00:00 29.6 12 Sur 21 Sur 0 -- -- 28
2019-05-22 17:00:00 29 8 Sur 19 Sudeste 0 -- -- 28
2019-05-22 16:00:00 28.7 8 Este 26 Sudeste 0 -- -- 30
2019-05-22 15:00:00 28 7 Sudeste 18 Sur 0 -- -- 31
2019-05-22 14:00:00 26.9 6 Sudeste 17 Sudoeste 0 -- -- 35
2019-05-22 13:00:00 25.7 7 Sudeste 18 Sudeste 0 -- -- 36
2019-05-22 12:00:00 24 8 Este 18 Sudeste 0 -- -- 39
2019-05-22 11:00:00 21.9 6 Sudeste 18 Sudeste 0 -- -- 42
2019-05-22 10:00:00 20.3 9 Sudeste 17 Este 0 -- -- 49
2019-05-22 09:00:00 17.1 8 Sudeste 13 Este 0 -- -- 58
2019-05-22 08:00:00 12.1 0 Calma 5 Norte 0 -- -- 76
2019-05-22 07:00:00 10.9 2 Sudoeste 6 Norte 0 -- -- 78
2019-05-22 06:00:00 11.5 4 Noroeste 6 Oeste 0 -- -- 73
2019-05-22 05:00:00 12 4 Noroeste 6 Oeste 0 -- -- 72
2019-05-22 04:00:00 12.3 3 Norte 5 Norte 0 -- -- 74
2019-05-22 03:00:00 14.1 0 Calma 6 Norte 0 -- -- 65
2019-05-22 02:00:00 15.4 4 Noroeste 8 Norte 0 -- -- 61
2019-05-22 01:00:00 16.2 5 Nordeste 8 Norte 0 -- -- 59
2019-05-22 00:00:00 18.1 5 Noroeste 16 Oeste 0 -- -- 52
2019-05-21 23:00:00 18.5 5 Oeste 8 Oeste 0 -- -- 54
2019-05-21 22:00:00 21.2 5 Oeste 6 Sudoeste 0 -- -- 46
2019-05-21 21:00:00 25.8 3 Sudoeste 13 Sur 0 -- -- 35
2019-05-21 20:00:00 26.2 8 Sur 19 Sur 0 -- -- 33
2019-05-21 19:00:00 26.4 8 Sudoeste 21 Sur 0 -- -- 32
2019-05-21 18:00:00 26.8 12 Sudeste 26 Sur 0 -- -- 32
2019-05-21 17:00:00 26.5 13 Sudeste 25 Sur 0 -- -- 33
2019-05-21 16:00:00 26 12 Sur 24 Sudeste 0 -- -- 35
2019-05-21 15:00:00 25 13 Sur 27 Sudoeste 0 -- -- 36
2019-05-21 14:00:00 23.6 10 Sur 22 Sudoeste 0 -- -- 39
2019-05-21 13:00:00 23.1 12 Sudeste 21 Sur 0 -- -- 40
2019-05-21 12:00:00 21.7 5 Norte 16 Nordeste 0 -- -- 38
2019-05-21 11:00:00 19.6 3 Oeste 10 Noroeste 0 -- -- 48
2019-05-21 10:00:00 17.4 4 Oeste 11 Oeste 0 -- -- 54
2019-05-21 09:00:00 14.5 3 Oeste 8 Oeste 0 -- -- 63
2019-05-21 08:00:00 10.3 4 Oeste 8 Oeste 0 -- -- 80
2019-05-21 07:00:00 8.7 3 Noroeste 5 Oeste 0 -- -- 84
2019-05-21 06:00:00 9.6 3 Noroeste 5 Oeste 0 -- -- 79
2019-05-21 05:00:00 10.4 3 Oeste 5 Oeste 0 -- -- 76
2019-05-21 04:00:00 11.7 3 Noroeste 6 Norte 0 -- -- 70
2019-05-21 03:00:00 14.1 4 Noroeste 16 Noroeste 0 -- -- 60
2019-05-21 02:00:00 15.4 11 Noroeste 17 Norte 0 -- -- 56
2019-05-21 01:00:00 14 6 Noroeste 12 Este 0 -- -- 54
2019-05-21 00:00:00 16.6 7 Noroeste 15 Noroeste 0 -- -- 42
2019-05-20 23:00:00 18.1 9 Noroeste 16 Norte 0 -- -- 42
2019-05-20 22:00:00 19.5 10 Norte 26 Norte 0 -- -- 40
2019-05-20 21:00:00 21.2 14 Norte 26 Noroeste 0 -- -- 36
2019-05-20 20:00:00 22.4 15 Noroeste 28 Oeste 0 -- -- 33
2019-05-20 19:00:00 24.1 8 Oeste 21 Oeste 0 -- -- 27
2019-05-20 18:00:00 25 8 Sudeste 45 Noroeste 0 -- -- 29
2019-05-20 17:00:00 25.1 10 Sudoeste 21 Oeste 0 -- -- 29
2019-05-20 16:00:00 24.4 10 Sudeste 24 Oeste 0 -- -- 30
2019-05-20 15:00:00 23.6 12 Sudoeste 23 Oeste 0 -- -- 31
2019-05-20 14:00:00 21.8 12 Sur 23 Sudeste 0 -- -- 33
2019-05-20 13:00:00 20.2 7 Sur 17 Sur 0 -- -- 37
2019-05-20 12:00:00 19.1 11 Sur 18 Sudeste 0 -- -- 38
2019-05-20 11:00:00 17.8 5 Sudeste 12 Sudeste 0 -- -- 41
2019-05-20 10:00:00 14 3 Norte 6 Sudeste 0 -- -- 57
2019-05-20 09:00:00 11.9 6 Sudeste 10 Sudeste 0 -- -- 64
2019-05-20 08:00:00 9 4 Oeste 5 Oeste 0 -- -- 76
2019-05-20 07:00:00 7.9 3 Noroeste 6 Oeste 0 -- -- 78
2019-05-20 06:00:00 8.4 2 Sur 8 Oeste 0 -- -- 75
2019-05-20 05:00:00 8.8 3 Oeste 8 Oeste 0 -- -- 73
2019-05-20 04:00:00 8.3 4 Noroeste 5 Oeste 0 -- -- 75
2019-05-20 03:00:00 10.5 2 Noroeste 10 Sur 0 -- -- 63
2019-05-20 02:00:00 12.6 5 Sur 19 Noroeste 0 -- -- 55
2019-05-20 01:00:00 15.3 15 Norte 25 Norte 0 -- -- 46
2019-05-20 00:00:00 16 14 Norte 24 Norte 0 -- -- 44
2019-05-19 23:00:00 17 15 Norte 25 Noroeste 0 -- -- 43
2019-05-19 22:00:00 17.9 13 Noroeste 22 Noroeste 0 -- -- 40
2019-05-19 21:00:00 19.6 11 Noroeste 20 Norte 0 -- -- 37
2019-05-19 20:00:00 20.8 13 Noroeste 26 Norte 0 -- -- 32
2019-05-19 19:00:00 21.7 15 Noroeste 27 Noroeste 0 -- -- 30
2019-05-19 18:00:00 22.5 14 Noroeste 30 Noroeste 0 -- -- 25
2019-05-19 17:00:00 22.5 15 Oeste 27 Oeste 0 -- -- 25
2019-05-19 16:00:00 21.6 14 Oeste 32 Norte 0 -- -- 29
2019-05-19 15:00:00 20.8 14 Noroeste 28 Noroeste 0 -- -- 29
2019-05-19 14:00:00 19.4 9 Noroeste 24 Noroeste 0 -- -- 31
2019-05-19 13:00:00 18.5 9 Oeste 24 Oeste 0 -- -- 36
2019-05-19 12:00:00 17.3 6 Nordeste 21 Nordeste 0 -- -- 41
2019-05-19 11:00:00 16 9 Nordeste 18 Norte 0 -- -- 48
2019-05-19 10:00:00 13.7 3 Nordeste 10 Nordeste 0 -- -- 56
2019-05-19 09:00:00 11 3 Este 6 Nordeste 0 -- -- 67
2019-05-19 08:00:00 7.3 0 Calma 4 Noroeste 0 -- -- 80
2019-05-19 07:00:00 6.5 3 Norte 10 Oeste 0 -- -- 82
2019-05-19 06:00:00 7.9 3 Noroeste 10 Noroeste 0 -- -- 77
2019-05-19 05:00:00 7.9 4 Noroeste 6 Noroeste 0 -- -- 77
2019-05-19 04:00:00 8 3 Norte 8 Oeste 0 -- -- 76
2019-05-19 03:00:00 9.7 4 Noroeste 9 Norte 0 -- -- 68
2019-05-19 02:00:00 11.1 2 Oeste 12 Noroeste 0 -- -- 62
2019-05-19 01:00:00 12.8 9 Noroeste 27 Norte 0 -- -- 55
2019-05-19 00:00:00 12.6 12 Noroeste 24 Noroeste 0 -- -- 52
2019-05-18 23:00:00 13.3 12 Noroeste 19 Noroeste 0 -- -- 47
2019-05-18 22:00:00 14.8 13 Noroeste 25 Noroeste 0 -- -- 41
2019-05-18 21:00:00 16.7 15 Noroeste 32 Noroeste 0 -- -- 36
2019-05-18 20:00:00 18.5 18 Noroeste 31 Noroeste 0 -- -- 33
2019-05-18 19:00:00 19.7 15 Noroeste 36 Noroeste 0 -- -- 31
2019-05-18 18:00:00 20 19 Noroeste 37 Norte 0 -- -- 31
2019-05-18 17:00:00 19.5 12 Noroeste 33 Oeste 0 -- -- 30
2019-05-18 16:00:00 19.1 12 Norte 31 Noroeste 0 -- -- 31
2019-05-18 15:00:00 18.4 17 Noroeste 33 Oeste 0 -- -- 32
2019-05-18 14:00:00 17.1 14 Noroeste 27 Norte 0 -- -- 36
2019-05-18 13:00:00 16 11 Noroeste 28 Norte 0 -- -- 40
2019-05-18 12:00:00 15.5 9 Nordeste 30 Norte 0 -- -- 42
2019-05-18 11:00:00 13.5 12 Norte 31 Norte 0 -- -- 49
2019-05-18 10:00:00 11.4 17 Noroeste 32 Norte 0 -- -- 54
2019-05-18 09:00:00 10.8 17 Noroeste 26 Noroeste 0 -- -- 58
2019-05-18 08:00:00 8.5 3 Noroeste 12 Nordeste 0 -- -- 67
2019-05-18 07:00:00 8.8 4 Noroeste 26 Norte 0 -- -- 66
2019-05-18 06:00:00 10 17 Norte 27 Norte 0 -- -- 61
2019-05-18 05:00:00 10.6 14 Norte 35 Noroeste 0 -- -- 60
2019-05-18 04:00:00 10.9 10 Norte 21 Norte 0 -- -- 59
2019-05-18 03:00:00 11.2 12 Norte 23 Noroeste 0 -- -- 60
2019-05-18 02:00:00 12.1 15 Noroeste 31 Norte 0 -- -- 57
2019-05-18 01:00:00 12.9 19 Noroeste 31 Noroeste 0 -- -- 54
2019-05-18 00:00:00 13.7 17 Norte 30 Noroeste 0 -- -- 53
2019-05-17 23:00:00 14.1 15 Noroeste 28 Noroeste 0 -- -- 52
2019-05-17 22:00:00 14.9 12 Norte 27 Noroeste 0 -- -- 48
2019-05-17 21:00:00 17 15 Noroeste 32 Noroeste 0 -- -- 40
2019-05-17 20:00:00 18.1 24 Noroeste 35 Noroeste 0 -- -- 38
2019-05-17 19:00:00 19.7 19 Noroeste 41 Noroeste 0 -- -- 34
2019-05-17 18:00:00 20.3 19 Noroeste 37 Noroeste 0 -- -- 34
2019-05-17 17:00:00 19.8 21 Noroeste 36 Noroeste 0 -- -- 33
2019-05-17 16:00:00 19.7 21 Noroeste 37 Noroeste 0 -- -- 33
2019-05-17 15:00:00 18.7 16 Noroeste 34 Noroeste 0 -- -- 37
2019-05-17 14:00:00 17.4 15 Noroeste 33 Norte 0 -- -- 42
2019-05-17 13:00:00 15.1 21 Noroeste 42 Noroeste 0 -- -- 48
2019-05-17 12:00:00 13.9 27 Norte 42 Norte 0 -- -- 51
2019-05-17 11:00:00 13.4 13 Noroeste 24 Oeste 0 -- -- 55
2019-05-17 10:00:00 12.7 11 Noroeste 35 Noroeste 0 -- -- 56
2019-05-17 09:00:00 11.9 19 Noroeste 31 Noroeste 0 -- -- 57
2019-05-17 08:00:00 10.6 12 Noroeste 24 Oeste 0 -- -- 61
2019-05-17 07:00:00 9.7 9 Noroeste 25 Noroeste 0 -- -- 64
2019-05-17 06:00:00 10.3 9 Noroeste 27 Norte 0 -- -- 62
2019-05-17 05:00:00 10.3 8 Noroeste 34 Noroeste 0 -- -- 63
2019-05-17 04:00:00 11.2 13 Noroeste 27 Noroeste 0 -- -- 61
2019-05-17 03:00:00 11.2 7 Noroeste 25 Noroeste 0 -- -- 61
2019-05-17 02:00:00 12.2 13 Noroeste 32 Noroeste 0 -- -- 59
2019-05-17 01:00:00 13.2 6 Noroeste 27 Noroeste 0 -- -- 57
2019-05-17 00:00:00 13.9 15 Noroeste 36 Noroeste 0 -- -- 55